createdAt,value
2023-02-09T00:01:37.444Z,-4.20
2023-02-09T00:06:40.044Z,-4.30
2023-02-09T00:12:01.004Z,-4.30
2023-02-09T00:17:04.542Z,-4.30
2023-02-09T00:22:07.183Z,-4.40
2023-02-09T00:27:09.741Z,-4.50
2023-02-09T00:32:12.314Z,-4.60
2023-02-09T00:37:15.802Z,-4.60
2023-02-09T00:42:20.816Z,-4.60
2023-02-09T00:47:23.232Z,-4.70
2023-02-09T00:52:25.708Z,-4.70
2023-02-09T00:57:29.040Z,-4.70
2023-02-09T01:02:32.003Z,-4.80
2023-02-09T01:07:35.048Z,-4.70
2023-02-09T01:12:40.655Z,-4.70
2023-02-09T01:17:43.055Z,-4.70
2023-02-09T01:22:47.442Z,-4.70
2023-02-09T01:27:50.271Z,-4.70
2023-02-09T01:32:52.779Z,-4.60
2023-02-09T01:37:55.908Z,-4.60
2023-02-09T01:42:58.336Z,-4.60
2023-02-09T01:48:03.708Z,-4.50
2023-02-09T01:53:07.688Z,-4.60
2023-02-09T01:58:14.300Z,-4.70
2023-02-09T02:03:21.221Z,-4.70
2023-02-09T02:08:29.726Z,-4.80
2023-02-09T02:13:32.183Z,-4.80
2023-02-09T02:18:40.707Z,-4.90
2023-02-09T02:24:25.299Z,-4.70
2023-02-09T02:29:36.778Z,-4.80
2023-02-09T02:35:19.629Z,-5.00
2023-02-09T02:40:38.946Z,-5.00
2023-02-09T02:45:48.878Z,-5.00
2023-02-09T02:50:57.293Z,-5.10
2023-02-09T02:56:10.713Z,-5.20
2023-02-09T03:01:17.490Z,-5.20
2023-02-09T03:06:20.012Z,-5.30
2023-02-09T03:11:26.928Z,-5.30
2023-02-09T03:16:46.248Z,-5.30
2023-02-09T03:21:57.653Z,-5.30
2023-02-09T03:27:25.071Z,-5.30
2023-02-09T03:32:28.376Z,-5.40
2023-02-09T03:37:30.772Z,-5.40
2023-02-09T03:42:33.644Z,-5.40
2023-02-09T03:47:36.185Z,-5.50
2023-02-09T03:52:38.592Z,-5.60
2023-02-09T03:57:41.040Z,-5.70
2023-02-09T04:02:44.080Z,-5.70
2023-02-09T04:07:46.484Z,-5.70
2023-02-09T04:12:49.192Z,-5.70
2023-02-09T04:17:51.662Z,-5.10
2023-02-09T04:22:54.107Z,-5.70
2023-02-09T04:27:56.806Z,-5.70
2023-02-09T04:32:59.350Z,-5.70
2023-02-09T04:38:01.855Z,-5.70
2023-02-09T04:43:04.680Z,-5.70
2023-02-09T04:48:07.940Z,-5.70
2023-02-09T04:53:10.671Z,-5.80
2023-02-09T04:58:34.684Z,-5.80
2023-02-09T05:03:37.105Z,-5.80
2023-02-09T05:08:39.540Z,-5.80
2023-02-09T05:13:42.615Z,-5.80
2023-02-09T05:18:45.317Z,-5.90
2023-02-09T05:23:47.813Z,-5.90
2023-02-09T05:28:50.312Z,-5.90
2023-02-09T05:33:52.849Z,-5.90
2023-02-09T05:38:55.345Z,-5.90
2023-02-09T05:43:58.121Z,-6.00
2023-02-09T05:49:00.830Z,-6.00
2023-02-09T05:54:03.418Z,-6.00
2023-02-09T05:59:05.873Z,-5.90
2023-02-09T06:04:09.261Z,-6.00
2023-02-09T06:09:12.010Z,-6.10
2023-02-09T06:14:14.449Z,-6.10
2023-02-09T06:19:20.123Z,-6.10
2023-02-09T06:24:22.636Z,-6.10
2023-02-09T06:29:25.042Z,-6.10
2023-02-09T06:34:27.586Z,-6.10
2023-02-09T06:39:30.197Z,-6.00
2023-02-09T06:44:33.340Z,-6.00
2023-02-09T06:49:35.823Z,-6.00
2023-02-09T06:54:38.624Z,-5.90
2023-02-09T06:59:41.179Z,-5.80
2023-02-09T07:04:43.631Z,-5.80
2023-02-09T07:09:46.078Z,-5.60
2023-02-09T07:14:51.308Z,-5.50
2023-02-09T07:19:53.879Z,-5.40
2023-02-09T07:24:56.473Z,-5.20
2023-02-09T07:30:00.924Z,-4.90
2023-02-09T07:35:03.775Z,-4.80
2023-02-09T07:40:06.535Z,-4.00
2023-02-09T07:45:10.165Z,-4.30
2023-02-09T07:50:12.607Z,-4.10
2023-02-09T07:55:15.196Z,-3.80
2023-02-09T08:00:18.066Z,-3.60
2023-02-09T08:05:41.005Z,-3.30
2023-02-09T08:10:43.714Z,-2.90
2023-02-09T08:15:52.907Z,-2.60
2023-02-09T08:20:56.598Z,-2.30
2023-02-09T08:26:04.217Z,-2.00
2023-02-09T08:31:06.716Z,-1.80
2023-02-09T08:36:10.920Z,-1.50
2023-02-09T08:41:15.315Z,-1.30
2023-02-09T08:46:19.501Z,-1.10
2023-02-09T08:51:22.286Z,-0.90
2023-02-09T08:56:24.825Z,-0.80
2023-02-09T09:01:27.249Z,-0.70
2023-02-09T09:06:29.791Z,-0.60
2023-02-09T09:11:32.228Z,-0.50
2023-02-09T09:16:34.740Z,-0.30
2023-02-09T09:21:37.306Z,-0.20
2023-02-09T09:26:39.713Z,0.00
2023-02-09T09:31:42.185Z,0.20
2023-02-09T09:36:44.763Z,0.20
2023-02-09T09:41:48.946Z,0.30
2023-02-09T09:46:54.656Z,0.50
2023-02-09T09:52:13.118Z,0.60
2023-02-09T09:57:28.677Z,0.70
2023-02-09T10:02:33.022Z,0.80
2023-02-09T10:07:35.996Z,1.00
2023-02-09T10:12:43.345Z,1.00
2023-02-09T10:17:45.745Z,1.20
2023-02-09T10:22:51.805Z,1.20
2023-02-09T10:27:54.259Z,1.30
2023-02-09T10:33:00.408Z,1.60
2023-02-09T10:38:04.171Z,1.70
2023-02-09T10:43:19.257Z,1.80
2023-02-09T10:48:24.581Z,2.70
2023-02-09T10:53:37.232Z,2.30
2023-02-09T10:58:39.876Z,2.30
2023-02-09T11:04:08.005Z,2.40
2023-02-09T11:09:18.417Z,2.40
2023-02-09T11:14:21.823Z,2.60
2023-02-09T11:19:42.344Z,2.60
2023-02-09T11:25:05.110Z,2.80
2023-02-09T11:30:28.856Z,2.70
2023-02-09T11:36:05.872Z,2.90
2023-02-09T11:41:31.794Z,2.90
2023-02-09T11:46:35.868Z,3.10
2023-02-09T11:51:39.959Z,3.10
2023-02-09T11:56:47.359Z,3.10
2023-02-09T12:02:01.956Z,3.10
2023-02-09T12:07:40.828Z,3.20
2023-02-09T12:12:54.990Z,3.20
2023-02-09T12:18:04.644Z,3.30
2023-02-09T12:23:24.466Z,3.30
2023-02-09T12:28:32.929Z,3.20
2023-02-09T12:33:59.787Z,3.40
2023-02-09T12:39:24.835Z,3.30
2023-02-09T12:44:27.235Z,3.30
2023-02-09T12:49:29.785Z,3.30
2023-02-09T12:54:51.082Z,3.40
2023-02-09T12:59:53.573Z,3.40
2023-02-09T13:05:02.211Z,3.40
2023-02-09T13:10:46.209Z,3.40
2023-02-09T13:15:55.040Z,3.30
2023-02-09T13:21:27.798Z,3.20
2023-02-09T13:26:34.966Z,3.40
2023-02-09T13:31:43.012Z,3.40
2023-02-09T13:37:09.711Z,3.50
2023-02-09T13:42:20.832Z,3.30
2023-02-09T13:47:24.242Z,3.30
2023-02-09T13:52:32.429Z,3.30
2023-02-09T13:57:37.584Z,3.20
2023-02-09T14:02:43.933Z,3.20
2023-02-09T14:07:46.558Z,3.30
2023-02-09T14:13:07.923Z,3.30
2023-02-09T14:18:24.304Z,3.20
2023-02-09T14:23:32.761Z,3.20
2023-02-09T14:28:37.292Z,3.20
2023-02-09T14:33:39.711Z,3.10
2023-02-09T14:38:42.792Z,3.00
2023-02-09T14:43:45.358Z,3.00
2023-02-09T14:48:47.873Z,2.90
2023-02-09T14:53:50.563Z,2.90
2023-02-09T14:58:53.442Z,2.80
2023-02-09T15:03:55.860Z,2.70
2023-02-09T15:08:58.353Z,2.50
2023-02-09T15:14:06.640Z,2.40
2023-02-09T15:19:20.588Z,2.30
2023-02-09T15:24:22.978Z,2.10
2023-02-09T15:29:26.020Z,2.00
2023-02-09T15:34:28.389Z,1.80
2023-02-09T15:39:31.600Z,1.60
2023-02-09T15:44:52.509Z,1.40
2023-02-09T15:49:57.491Z,1.30
2023-02-09T15:55:00.058Z,1.00
2023-02-09T16:00:03.057Z,0.90
2023-02-09T16:05:07.414Z,0.60
2023-02-09T16:10:29.799Z,0.40
2023-02-09T16:15:32.286Z,0.30
2023-02-09T16:20:34.907Z,0.20
2023-02-09T16:25:37.297Z,-0.10
2023-02-09T16:30:51.810Z,-0.20
2023-02-09T16:35:57.323Z,-0.40
2023-02-09T16:40:59.747Z,-0.60
2023-02-09T16:46:04.753Z,-0.80
2023-02-09T16:51:07.369Z,-0.80
2023-02-09T16:56:13.078Z,-0.80
2023-02-09T17:01:21.803Z,-1.00
2023-02-09T17:06:28.413Z,-1.10
2023-02-09T17:11:30.793Z,-1.20
2023-02-09T17:16:39.911Z,-1.30
2023-02-09T17:21:42.684Z,-1.30
2023-02-09T17:26:45.332Z,-1.40
2023-02-09T17:31:53.464Z,-1.40
2023-02-09T17:36:57.095Z,-1.40
2023-02-09T17:42:00.488Z,-1.40
2023-02-09T17:47:03.506Z,-1.40
2023-02-09T17:52:06.033Z,-1.50
2023-02-09T17:57:15.391Z,-1.50
2023-02-09T18:02:20.242Z,-1.50
2023-02-09T18:07:22.638Z,-1.50
2023-02-09T18:12:27.093Z,-1.50
2023-02-09T18:17:30.244Z,-1.40
2023-02-09T18:22:32.651Z,-1.50
2023-02-09T18:27:35.112Z,-1.50
2023-02-09T18:32:37.513Z,-1.60
2023-02-09T18:37:39.921Z,-1.50
2023-02-09T18:42:42.658Z,-1.50
2023-02-09T18:47:45.131Z,-1.50
2023-02-09T18:52:53.358Z,-1.50
2023-02-09T18:57:57.708Z,-1.50
2023-02-09T19:03:00.697Z,-1.50
2023-02-09T19:08:03.537Z,-1.30
2023-02-09T19:13:06.527Z,-1.10
2023-02-09T19:18:08.934Z,-0.90
2023-02-09T19:23:11.371Z,-0.40
2023-02-09T19:28:13.870Z,-0.30
2023-02-09T19:33:16.297Z,-0.20
2023-02-09T19:38:18.678Z,-0.10
2023-02-09T19:43:21.358Z,0.30
2023-02-09T19:48:23.950Z,0.30
2023-02-09T19:53:27.338Z,0.20
2023-02-09T19:58:30.081Z,0.20
2023-02-09T20:03:32.857Z,0.10
2023-02-09T20:08:36.581Z,0.20
2023-02-09T20:13:39.495Z,0.10
2023-02-09T20:18:43.484Z,0.00
2023-02-09T20:23:46.782Z,0.00
2023-02-09T20:28:49.632Z,0.00
2023-02-09T20:33:52.761Z,0.10
2023-02-09T20:38:55.204Z,0.00
2023-02-09T20:44:16.191Z,0.10
2023-02-09T20:49:19.664Z,0.10
2023-02-09T20:54:22.173Z,0.00
2023-02-09T20:59:24.863Z,0.00
2023-02-09T21:04:27.731Z,0.00
2023-02-09T21:09:30.396Z,0.10
2023-02-09T21:14:41.802Z,0.10
2023-02-09T21:19:45.093Z,0.00
2023-02-09T21:24:47.562Z,0.00
2023-02-09T21:29:49.962Z,-0.10
2023-02-09T21:34:52.373Z,-0.20
2023-02-09T21:39:55.834Z,-0.30
2023-02-09T21:44:59.715Z,-0.40
2023-02-09T21:50:02.668Z,-0.50
2023-02-09T21:55:05.432Z,-0.50
2023-02-09T22:00:09.450Z,-0.60
2023-02-09T22:05:12.263Z,-0.60
2023-02-09T22:10:15.361Z,-0.60
2023-02-09T22:15:19.197Z,-0.80
2023-02-09T22:20:21.610Z,-0.80
2023-02-09T22:25:24.056Z,-0.90
2023-02-09T22:30:26.564Z,-0.90
2023-02-09T22:35:29.653Z,-0.90
2023-02-09T22:40:32.025Z,-1.00
2023-02-09T22:45:34.371Z,-1.00
2023-02-09T22:50:36.821Z,-0.90
2023-02-09T22:55:39.252Z,-1.10
2023-02-09T23:00:41.723Z,-1.20
2023-02-09T23:05:47.742Z,-1.30
2023-02-09T23:10:50.367Z,-1.30
2023-02-09T23:15:52.814Z,-1.30
2023-02-09T23:20:57.468Z,-1.40
2023-02-09T23:25:59.848Z,-1.10
2023-02-09T23:31:11.127Z,-1.50
2023-02-09T23:36:16.555Z,-1.50
2023-02-09T23:41:19.653Z,-1.40
2023-02-09T23:46:25.774Z,-1.40
2023-02-09T23:51:32.454Z,-1.40
2023-02-09T23:56:37.370Z,-1.40
